createdAt,value
2023-04-30T00:00:38.342Z,101222.72
2023-04-30T00:03:04.988Z,101221.69
2023-04-30T00:05:31.968Z,101227.66
2023-04-30T00:07:58.479Z,101227.41
2023-04-30T00:10:24.935Z,101229.94
2023-04-30T00:12:51.434Z,101224.56
2023-04-30T00:15:18.198Z,101232.31
2023-04-30T00:17:44.774Z,101231.34
2023-04-30T00:20:12.381Z,101232.16
2023-04-30T00:22:39.047Z,101241.66
2023-04-30T00:25:05.668Z,101238.06
2023-04-30T00:27:32.229Z,101234.47
2023-04-30T00:29:59.155Z,101240.44
2023-04-30T00:32:25.825Z,101236.78
2023-04-30T00:34:52.353Z,101239.31
2023-04-30T00:37:19.453Z,101240.06
2023-04-30T00:39:45.986Z,101242.63
2023-04-30T00:42:12.493Z,101242.50
2023-04-30T00:44:39.053Z,101245.91
2023-04-30T00:47:05.710Z,101257.16
2023-04-30T00:49:32.452Z,101249.13
2023-04-30T00:51:59.117Z,101264.81
2023-04-30T00:54:25.976Z,101264.59
2023-04-30T00:56:52.599Z,101256.63
2023-04-30T00:59:19.345Z,101262.56
2023-04-30T01:01:46.061Z,101262.44
2023-04-30T01:04:12.866Z,101265.88
2023-04-30T01:06:39.827Z,101272.88
2023-04-30T01:09:07.343Z,101276.28
2023-04-30T01:11:43.275Z,101275.31
2023-04-30T01:14:17.523Z,101270.84
2023-04-30T01:16:52.437Z,101276.78
2023-04-30T01:19:35.090Z,101276.59
2023-04-30T01:22:04.361Z,101279.09
2023-04-30T01:24:49.214Z,101281.66
2023-04-30T01:27:31.869Z,101274.53
2023-04-30T01:30:00.168Z,101278.75
2023-04-30T01:32:26.874Z,101275.28
2023-04-30T01:34:53.455Z,101277.81
2023-04-30T01:38:18.180Z,101277.69
2023-04-30T01:40:53.021Z,101279.28
2023-04-30T01:43:41.399Z,101284.47
2023-04-30T01:46:27.548Z,101285.16
2023-04-30T01:49:24.413Z,101290.34
2023-04-30T01:51:58.348Z,101283.22
2023-04-30T01:54:36.442Z,101294.56
2023-04-30T01:57:17.613Z,101302.28
2023-04-30T01:59:45.797Z,101299.56
2023-04-30T02:02:13.138Z,101301.25
2023-04-30T02:04:39.941Z,101301.09
2023-04-30T02:07:06.491Z,101306.22
2023-04-30T02:09:33.114Z,101297.38
2023-04-30T02:11:59.891Z,101305.19
2023-04-30T02:14:26.373Z,101316.59
2023-04-30T02:16:53.253Z,101319.97
2023-04-30T02:19:19.909Z,101318.03
2023-04-30T02:21:46.424Z,101310.94
2023-04-30T02:24:13.030Z,101309.06
2023-04-30T02:26:39.519Z,101318.56
2023-04-30T02:29:05.994Z,101319.41
2023-04-30T02:31:32.628Z,101321.13
2023-04-30T02:33:59.191Z,101306.13
2023-04-30T02:36:26.141Z,101319.13
2023-04-30T02:38:52.594Z,101318.09
2023-04-30T02:41:19.051Z,101323.25
2023-04-30T02:43:45.574Z,101314.34
2023-04-30T02:46:12.290Z,101323.09
2023-04-30T02:48:38.829Z,101323.88
2023-04-30T02:51:05.597Z,101333.44
2023-04-30T02:53:32.191Z,101328.06
2023-04-30T02:55:59.188Z,101333.16
2023-04-30T02:58:26.636Z,101329.59
2023-04-30T03:00:53.249Z,101327.84
2023-04-30T03:03:19.928Z,101332.22
2023-04-30T03:05:46.737Z,101331.16
2023-04-30T03:08:13.192Z,101330.19
2023-04-30T03:10:39.641Z,101329.16
2023-04-30T03:13:06.300Z,101333.44
2023-04-30T03:15:34.104Z,101330.63
2023-04-30T03:18:00.732Z,101344.50
2023-04-30T03:20:27.344Z,101340.00
2023-04-30T03:22:54.043Z,101342.56
2023-04-30T03:25:20.519Z,101343.31
2023-04-30T03:27:47.116Z,101348.34
2023-04-30T03:30:13.607Z,101348.16
2023-04-30T03:32:40.253Z,101354.19
2023-04-30T03:35:07.098Z,101349.69
2023-04-30T03:37:34.096Z,101348.63
2023-04-30T03:40:00.698Z,101362.56
2023-04-30T03:42:27.198Z,101362.38
2023-04-30T03:44:53.696Z,101359.69
2023-04-30T03:47:20.410Z,101356.09
2023-04-30T03:49:48.919Z,101363.03
2023-04-30T03:52:15.950Z,101362.91
2023-04-30T03:54:42.437Z,101354.19
2023-04-30T03:57:10.702Z,101362.03
2023-04-30T03:59:37.384Z,101364.56
2023-04-30T04:02:03.893Z,101362.78
2023-04-30T04:04:31.169Z,101368.00
2023-04-30T04:06:58.245Z,101367.03
2023-04-30T04:09:24.823Z,101366.22
2023-04-30T04:11:51.419Z,101369.66
2023-04-30T04:14:18.007Z,101369.66
2023-04-30T04:16:44.735Z,101377.59
2023-04-30T04:19:12.940Z,101382.03
2023-04-30T04:21:39.552Z,101378.56
2023-04-30T04:24:12.452Z,101381.19
2023-04-30T04:26:39.020Z,101384.78
2023-04-30T04:29:05.696Z,101392.63
2023-04-30T04:31:32.458Z,101400.56
2023-04-30T04:34:00.643Z,101398.84
2023-04-30T04:36:28.401Z,101398.84
2023-04-30T04:39:02.417Z,101400.75
2023-04-30T04:41:33.783Z,101407.84
2023-04-30T04:44:01.910Z,101411.50
2023-04-30T04:46:29.709Z,101417.00
2023-04-30T04:48:56.999Z,101418.84
2023-04-30T04:51:24.467Z,101429.50
2023-04-30T04:53:50.995Z,101428.00
2023-04-30T04:56:18.342Z,101428.31
2023-04-30T04:58:45.564Z,101428.59
2023-04-30T05:01:12.254Z,101421.84
2023-04-30T05:03:38.901Z,101430.84
2023-04-30T05:06:05.917Z,101427.53
2023-04-30T05:08:32.573Z,101433.94
2023-04-30T05:10:59.268Z,101434.06
2023-04-30T05:13:26.433Z,101427.31
2023-04-30T05:15:54.116Z,101434.50
2023-04-30T05:18:21.080Z,101439.88
2023-04-30T05:20:47.713Z,101441.84
2023-04-30T05:23:14.201Z,101449.84
2023-04-30T05:25:40.713Z,101451.72
2023-04-30T05:28:07.385Z,101444.91
2023-04-30T05:30:34.311Z,101446.84
2023-04-30T05:33:00.887Z,101448.88
2023-04-30T05:35:27.567Z,101448.19
2023-04-30T05:37:54.231Z,101456.25
2023-04-30T05:40:20.933Z,101456.56
2023-04-30T05:42:47.579Z,101455.03
2023-04-30T05:45:17.602Z,101461.47
2023-04-30T05:47:44.358Z,101466.16
2023-04-30T05:50:11.336Z,101464.72
2023-04-30T05:52:38.154Z,101457.16
2023-04-30T05:55:05.435Z,101463.59
2023-04-30T05:57:31.912Z,101460.34
2023-04-30T05:59:58.440Z,101471.22
2023-04-30T06:02:25.314Z,101465.34
2023-04-30T06:04:52.107Z,101463.88
2023-04-30T06:07:18.679Z,101469.47
2023-04-30T06:09:45.678Z,101471.53
2023-04-30T06:12:12.292Z,101469.16
2023-04-30T06:14:39.632Z,101478.16
2023-04-30T06:17:06.118Z,101474.91
2023-04-30T06:19:32.614Z,101468.22
2023-04-30T06:21:59.095Z,101475.59
2023-04-30T06:24:27.589Z,101475.88
2023-04-30T06:26:54.144Z,101477.00
2023-04-30T06:29:20.815Z,101474.72
2023-04-30T06:31:47.380Z,101475.88
2023-04-30T06:34:13.943Z,101477.03
2023-04-30T06:36:40.538Z,101485.22
2023-04-30T06:39:07.320Z,101476.63
2023-04-30T06:41:34.144Z,101480.41
2023-04-30T06:44:01.379Z,101479.81
2023-04-30T06:46:27.900Z,101481.75
2023-04-30T06:48:54.703Z,101483.66
2023-04-30T06:51:21.173Z,101482.81
2023-04-30T06:53:47.723Z,101473.38
2023-04-30T06:56:14.231Z,101478.81
2023-04-30T06:58:40.824Z,101478.03
2023-04-30T07:01:07.405Z,101472.97
2023-04-30T07:03:34.721Z,101482.84
2023-04-30T07:06:01.421Z,101479.34
2023-04-30T07:08:28.126Z,101489.16
2023-04-30T07:10:54.648Z,101488.47
2023-04-30T07:13:21.216Z,101486.00
2023-04-30T07:15:47.905Z,101487.16
2023-04-30T07:18:14.496Z,101484.72
2023-04-30T07:20:41.053Z,101480.47
2023-04-30T07:23:07.679Z,101483.28
2023-04-30T07:25:34.989Z,101483.59
2023-04-30T07:28:01.570Z,101475.84
2023-04-30T07:30:28.244Z,101483.03
2023-04-30T07:32:54.799Z,101484.94
2023-04-30T07:35:21.398Z,101477.13
2023-04-30T07:37:47.930Z,101485.28
2023-04-30T07:40:21.977Z,101485.22
2023-04-30T07:42:55.357Z,101479.09
2023-04-30T07:45:21.833Z,101481.94
2023-04-30T07:47:48.772Z,101487.44
2023-04-30T07:50:16.330Z,101489.44
2023-04-30T07:52:42.752Z,101485.19
2023-04-30T07:55:09.433Z,101483.69
2023-04-30T07:57:36.071Z,101493.56
2023-04-30T08:00:02.624Z,101483.09
2023-04-30T08:02:39.163Z,101489.41
2023-04-30T08:05:05.972Z,101478.09
2023-04-30T08:07:32.416Z,101486.16
2023-04-30T08:09:58.935Z,101483.69
2023-04-30T08:12:25.452Z,101491.66
2023-04-30T08:15:00.378Z,101489.97
2023-04-30T08:17:27.100Z,101488.19
2023-04-30T08:19:53.881Z,101487.34
2023-04-30T08:22:20.510Z,101484.69
2023-04-30T08:24:46.960Z,101490.94
2023-04-30T08:27:13.513Z,101484.78
2023-04-30T08:29:40.304Z,101480.66
2023-04-30T08:32:07.006Z,101482.50
2023-04-30T08:34:33.986Z,101483.59
2023-04-30T08:37:01.289Z,101477.53
2023-04-30T08:39:27.807Z,101483.94
2023-04-30T08:41:56.349Z,101485.16
2023-04-30T08:44:24.054Z,101484.44
2023-04-30T08:46:55.072Z,101478.41
2023-04-30T08:49:24.520Z,101481.22
2023-04-30T08:51:52.073Z,101485.72
2023-04-30T08:54:19.292Z,101477.88
2023-04-30T08:56:46.338Z,101483.16
2023-04-30T08:59:13.611Z,101484.03
2023-04-30T09:01:41.444Z,101476.97
2023-04-30T09:04:08.557Z,101483.22
2023-04-30T09:06:35.334Z,101478.91
2023-04-30T09:09:15.713Z,101477.22
2023-04-30T09:11:42.817Z,101477.28
2023-04-30T09:14:09.618Z,101474.75
2023-04-30T09:16:50.481Z,101473.19
2023-04-30T09:19:27.441Z,101468.97
2023-04-30T09:21:54.690Z,101474.41
2023-04-30T09:24:21.303Z,101471.03
2023-04-30T09:26:48.346Z,101478.13
2023-04-30T09:29:15.466Z,101470.22
2023-04-30T09:31:48.437Z,101466.53
2023-04-30T09:34:15.327Z,101471.81
2023-04-30T09:36:56.078Z,101471.84
2023-04-30T09:39:22.973Z,101466.66
2023-04-30T09:41:51.448Z,101465.88
2023-04-30T09:44:28.442Z,101466.03
2023-04-30T09:46:57.583Z,101463.75
2023-04-30T09:49:24.650Z,101462.13
2023-04-30T09:52:01.574Z,101469.38
2023-04-30T09:54:32.071Z,101465.94
2023-04-30T09:57:01.442Z,101462.44
2023-04-30T09:59:33.086Z,101458.25
2023-04-30T10:02:01.212Z,101463.66
2023-04-30T10:04:30.601Z,101459.44
2023-04-30T10:06:59.260Z,101467.41
2023-04-30T10:09:34.662Z,101456.84
2023-04-30T10:12:03.891Z,101456.03
2023-04-30T10:14:34.259Z,101456.94
2023-04-30T10:17:11.242Z,101460.53
2023-04-30T10:19:41.647Z,101456.22
2023-04-30T10:22:09.205Z,101449.25
2023-04-30T10:24:36.610Z,101444.13
2023-04-30T10:27:03.596Z,101448.69
2023-04-30T10:29:30.109Z,101451.50
2023-04-30T10:31:58.738Z,101440.03
2023-04-30T10:34:47.201Z,101442.69
2023-04-30T10:37:18.522Z,101437.41
2023-04-30T10:39:45.419Z,101438.38
2023-04-30T10:42:12.011Z,101439.47
2023-04-30T10:44:39.268Z,101428.13
2023-04-30T10:47:08.438Z,101426.41
2023-04-30T10:49:35.174Z,101422.09
2023-04-30T10:52:05.241Z,101421.28
2023-04-30T10:54:34.649Z,101414.44
2023-04-30T10:57:15.410Z,101414.63
2023-04-30T10:59:45.190Z,101412.97
2023-04-30T11:02:15.281Z,101413.03
2023-04-30T11:05:07.564Z,101409.56
2023-04-30T11:07:34.554Z,101402.56
2023-04-30T11:10:02.378Z,101395.50
2023-04-30T11:12:29.307Z,101393.75
2023-04-30T11:15:15.776Z,101395.63
2023-04-30T11:17:45.027Z,101398.38
2023-04-30T11:20:19.465Z,101397.59
2023-04-30T11:22:46.132Z,101392.50
2023-04-30T11:25:13.586Z,101388.22
2023-04-30T11:27:45.094Z,101378.69
2023-04-30T11:30:16.791Z,101385.84
2023-04-30T11:32:48.631Z,101380.59
2023-04-30T11:35:19.103Z,101375.38
2023-04-30T11:37:45.911Z,101369.28
2023-04-30T11:40:15.066Z,101380.69
2023-04-30T11:42:48.318Z,101372.81
2023-04-30T11:45:20.994Z,101372.88
2023-04-30T11:47:55.064Z,101379.19
2023-04-30T11:50:29.810Z,101367.06
2023-04-30T11:52:57.979Z,101366.31
2023-04-30T11:55:26.206Z,101373.47
2023-04-30T11:57:55.968Z,101363.81
2023-04-30T12:00:27.756Z,101355.84
2023-04-30T12:02:54.773Z,101357.66
2023-04-30T12:05:23.575Z,101357.69
2023-04-30T12:08:06.428Z,101358.59
2023-04-30T12:10:33.319Z,101355.28
2023-04-30T12:12:59.865Z,101352.81
2023-04-30T12:15:27.568Z,101363.53
2023-04-30T12:17:55.877Z,101353.81
2023-04-30T12:20:24.812Z,101353.00
2023-04-30T12:22:51.729Z,101359.25
2023-04-30T12:25:20.241Z,101355.81
2023-04-30T12:27:51.918Z,101351.47
2023-04-30T12:30:26.794Z,101345.41
2023-04-30T12:32:54.831Z,101344.56
2023-04-30T12:35:23.210Z,101344.63
2023-04-30T12:37:52.553Z,101336.75
2023-04-30T12:40:27.461Z,101340.38
2023-04-30T12:43:05.511Z,101336.00
2023-04-30T12:45:51.245Z,101336.94
2023-04-30T12:48:19.561Z,101332.59
2023-04-30T12:50:53.883Z,101323.03
2023-04-30T12:53:21.873Z,101327.59
2023-04-30T12:56:12.376Z,101329.56
2023-04-30T12:58:39.862Z,101326.06
2023-04-30T13:01:16.106Z,101313.69
2023-04-30T13:03:42.942Z,101327.06
2023-04-30T13:06:10.556Z,101313.91
2023-04-30T13:08:45.555Z,101310.38
2023-04-30T13:11:24.238Z,101316.63
2023-04-30T13:13:50.977Z,101301.63
2023-04-30T13:16:17.519Z,101313.25
2023-04-30T13:18:44.103Z,101308.88
2023-04-30T13:21:10.719Z,101307.13
2023-04-30T13:23:44.949Z,101310.72
2023-04-30T13:26:18.958Z,101300.94
2023-04-30T13:28:45.600Z,101307.19
2023-04-30T13:31:12.287Z,101311.69
2023-04-30T13:33:38.848Z,101306.44
2023-04-30T13:36:05.632Z,101309.16
2023-04-30T13:38:32.234Z,101299.44
2023-04-30T13:40:58.700Z,101298.63
2023-04-30T13:43:25.292Z,101294.22
2023-04-30T13:45:51.860Z,101293.41
2023-04-30T13:48:18.666Z,101290.72
2023-04-30T13:50:45.230Z,101283.66
2023-04-30T13:53:11.845Z,101284.53
2023-04-30T13:55:38.468Z,101277.53
2023-04-30T13:58:05.060Z,101278.47
2023-04-30T14:00:31.891Z,101272.28
2023-04-30T14:02:58.525Z,101274.06
2023-04-30T14:05:25.183Z,101273.16
2023-04-30T14:07:51.703Z,101275.03
2023-04-30T14:10:18.183Z,101266.19
2023-04-30T14:12:44.711Z,101259.97
2023-04-30T14:15:11.398Z,101261.78
2023-04-30T14:17:38.919Z,101259.13
2023-04-30T14:20:06.270Z,101258.25
2023-04-30T14:22:34.586Z,101255.66
2023-04-30T14:25:01.227Z,101260.13
2023-04-30T14:27:27.723Z,101260.13
2023-04-30T14:29:54.577Z,101246.84
2023-04-30T14:32:21.387Z,101242.44
2023-04-30T14:34:48.049Z,101235.44
2023-04-30T14:37:15.568Z,101240.81
2023-04-30T14:39:42.166Z,101233.72
2023-04-30T14:42:08.870Z,101232.88
2023-04-30T14:44:35.813Z,101240.88
2023-04-30T14:47:04.122Z,101231.16
2023-04-30T14:49:31.351Z,101229.41
2023-04-30T14:51:57.893Z,101226.75
2023-04-30T14:54:24.412Z,101230.31
2023-04-30T14:56:50.887Z,101227.66
2023-04-30T14:59:17.789Z,101222.34
2023-04-30T15:01:44.383Z,101213.47
2023-04-30T15:04:11.091Z,101215.25
2023-04-30T15:06:37.775Z,101222.38
2023-04-30T15:09:04.424Z,101209.06
2023-04-30T15:11:30.997Z,101213.50
2023-04-30T15:13:57.648Z,101202.84
2023-04-30T15:16:24.509Z,101209.09
2023-04-30T15:18:51.157Z,101198.50
2023-04-30T15:21:18.373Z,101204.78
2023-04-30T15:23:45.926Z,101205.72
2023-04-30T15:26:12.585Z,101206.69
2023-04-30T15:28:39.139Z,101197.94
2023-04-30T15:31:06.566Z,101199.91
2023-04-30T15:33:34.505Z,101200.50
2023-04-30T15:36:01.456Z,101189.72
2023-04-30T15:38:28.039Z,101185.56
2023-04-30T15:40:54.525Z,101191.81
2023-04-30T15:43:21.463Z,101182.09
2023-04-30T15:45:48.438Z,101180.66
2023-04-30T15:48:15.034Z,101180.59
2023-04-30T15:50:44.603Z,101167.81
2023-04-30T15:53:11.180Z,101164.63
2023-04-30T15:55:38.497Z,101160.81
2023-04-30T15:58:05.341Z,101159.44
2023-04-30T16:00:32.737Z,101167.25
2023-04-30T16:02:59.265Z,101165.25
2023-04-30T16:05:26.060Z,101172.84
2023-04-30T16:07:53.566Z,101169.50
2023-04-30T16:10:20.191Z,101165.47
2023-04-30T16:12:46.752Z,101164.63
2023-04-30T16:15:13.389Z,101176.69
2023-04-30T16:17:39.962Z,101170.63
2023-04-30T16:20:07.988Z,101175.47
2023-04-30T16:22:34.515Z,101172.03
2023-04-30T16:25:00.995Z,101168.13
2023-04-30T16:27:27.472Z,101165.25
2023-04-30T16:29:54.093Z,101177.50
2023-04-30T16:32:21.033Z,101171.47
2023-04-30T16:34:47.626Z,101171.97
2023-04-30T16:37:14.108Z,101166.91
2023-04-30T16:39:40.660Z,101167.31
2023-04-30T16:42:07.636Z,101173.19
2023-04-30T16:44:34.169Z,101170.28
2023-04-30T16:47:00.953Z,101162.75
2023-04-30T16:49:27.467Z,101161.63
2023-04-30T16:51:53.937Z,101160.53
2023-04-30T16:54:20.515Z,101165.19
2023-04-30T16:56:47.053Z,101168.94
2023-04-30T16:59:13.558Z,101165.66
2023-04-30T17:01:40.173Z,101153.88
2023-04-30T17:04:06.939Z,101152.56
2023-04-30T17:06:35.539Z,101157.13
2023-04-30T17:09:02.247Z,101151.94
2023-04-30T17:11:29.088Z,101146.56
2023-04-30T17:13:55.747Z,101142.03
2023-04-30T17:16:22.480Z,101150.22
2023-04-30T17:18:49.244Z,101145.19
2023-04-30T17:21:16.156Z,101156.53
2023-04-30T17:23:42.694Z,101144.38
2023-04-30T17:26:09.509Z,101141.84
2023-04-30T17:28:37.350Z,101139.81
2023-04-30T17:31:06.992Z,101140.31
2023-04-30T17:33:34.062Z,101143.75
2023-04-30T17:36:00.684Z,101148.13
2023-04-30T17:38:27.291Z,101144.66
2023-04-30T17:40:54.231Z,101142.47
2023-04-30T17:43:20.775Z,101134.56
2023-04-30T17:45:47.585Z,101134.19
2023-04-30T17:48:14.142Z,101136.09
2023-04-30T17:50:41.208Z,101139.03
2023-04-30T17:53:07.792Z,101134.34
2023-04-30T17:55:34.454Z,101138.22
2023-04-30T17:58:01.054Z,101133.69
2023-04-30T18:00:27.534Z,101136.94
2023-04-30T18:02:54.075Z,101145.34
2023-04-30T18:05:20.670Z,101146.34
2023-04-30T18:07:47.645Z,101142.66
2023-04-30T18:10:14.343Z,101149.59
2023-04-30T18:12:41.420Z,101141.28
2023-04-30T18:15:08.797Z,101140.88
2023-04-30T18:17:37.153Z,101133.31
2023-04-30T18:20:04.491Z,101142.59
2023-04-30T18:22:31.025Z,101146.47
2023-04-30T18:24:57.575Z,101135.13
2023-04-30T18:27:24.065Z,101146.03
2023-04-30T18:29:51.651Z,101135.47
2023-04-30T18:32:18.540Z,101136.50
2023-04-30T18:34:45.624Z,101146.41
2023-04-30T18:37:12.152Z,101135.81
2023-04-30T18:39:38.642Z,101137.63
2023-04-30T18:42:05.179Z,101129.63
2023-04-30T18:44:32.246Z,101134.97
2023-04-30T18:46:58.966Z,101137.63
2023-04-30T18:49:25.760Z,101132.28
2023-04-30T18:51:53.542Z,101133.97
2023-04-30T18:54:20.028Z,101141.06
2023-04-30T18:56:47.057Z,101133.84
2023-04-30T18:59:14.646Z,101137.34
2023-04-30T19:01:41.446Z,101136.34
2023-04-30T19:04:13.532Z,101138.91
2023-04-30T19:06:40.089Z,101138.81
2023-04-30T19:09:06.724Z,101148.41
2023-04-30T19:11:35.445Z,101151.81
2023-04-30T19:14:02.347Z,101158.81
2023-04-30T19:16:28.848Z,101148.91
2023-04-30T19:18:55.512Z,101156.78
2023-04-30T19:21:23.483Z,101159.34
2023-04-30T19:23:50.143Z,101153.88
2023-04-30T19:26:16.790Z,101146.63
2023-04-30T19:28:43.314Z,101149.13
2023-04-30T19:31:11.394Z,101146.31
2023-04-30T19:33:39.566Z,101146.13
2023-04-30T19:36:06.175Z,101144.22
2023-04-30T19:38:32.682Z,101143.19
2023-04-30T19:41:00.465Z,101138.59
2023-04-30T19:43:27.121Z,101142.00
2023-04-30T19:45:56.015Z,101145.34
2023-04-30T19:48:23.709Z,101147.84
2023-04-30T19:50:51.377Z,101138.84
2023-04-30T19:53:18.064Z,101135.19
2023-04-30T19:55:45.303Z,101137.69
2023-04-30T19:58:11.881Z,101139.25
2023-04-30T20:00:42.144Z,101147.88
2023-04-30T20:03:09.027Z,101143.28
2023-04-30T20:05:39.423Z,101145.75
2023-04-30T20:08:07.956Z,101140.28
2023-04-30T20:10:36.282Z,101140.06
2023-04-30T20:13:07.122Z,101135.41
2023-04-30T20:15:33.714Z,101144.94
2023-04-30T20:18:05.750Z,101138.63
2023-04-30T20:20:32.450Z,101143.75
2023-04-30T20:23:10.018Z,101142.69
2023-04-30T20:25:37.027Z,101140.78
2023-04-30T20:28:04.118Z,101142.41
2023-04-30T20:30:30.713Z,101143.97
2023-04-30T20:32:57.408Z,101142.06
2023-04-30T20:35:24.141Z,101139.22
2023-04-30T20:37:54.532Z,101141.78
2023-04-30T20:40:21.914Z,101144.28
2023-04-30T20:42:48.499Z,101149.50
2023-04-30T20:45:15.504Z,101141.47
2023-04-30T20:47:42.243Z,101136.97
2023-04-30T20:50:09.742Z,101135.94
2023-04-30T20:52:36.622Z,101132.28
2023-04-30T20:55:03.525Z,101137.38
2023-04-30T20:57:29.999Z,101139.94
2023-04-30T20:59:56.834Z,101136.31
2023-04-30T21:02:23.640Z,101138.81
2023-04-30T21:04:50.519Z,101135.16
2023-04-30T21:07:17.279Z,101120.97
2023-04-30T21:09:43.921Z,101127.03
2023-04-30T21:12:11.676Z,101133.94
2023-04-30T21:14:38.244Z,101134.69
2023-04-30T21:17:04.782Z,101135.41
2023-04-30T21:19:33.513Z,101130.00
2023-04-30T21:22:00.134Z,101132.53
2023-04-30T21:24:30.488Z,101130.66
2023-04-30T21:26:57.191Z,101123.50
2023-04-30T21:29:24.117Z,101129.63
2023-04-30T21:31:51.177Z,101116.28
2023-04-30T21:34:17.865Z,101117.13
2023-04-30T21:36:44.359Z,101118.75
2023-04-30T21:39:11.096Z,101114.28
2023-04-30T21:41:37.659Z,101119.44
2023-04-30T21:44:04.266Z,101107.91
2023-04-30T21:46:31.050Z,101112.22
2023-04-30T21:48:57.545Z,101106.91
2023-04-30T21:51:24.080Z,101111.22
2023-04-30T21:53:50.859Z,101099.72
2023-04-30T21:56:18.632Z,101104.03
2023-04-30T21:58:46.290Z,101102.22
2023-04-30T22:01:13.291Z,101098.56
2023-04-30T22:03:41.970Z,101102.88
2023-04-30T22:06:08.659Z,101098.38
2023-04-30T22:08:35.117Z,101093.00
2023-04-30T22:11:01.816Z,101093.88
2023-04-30T22:13:28.860Z,101088.50
2023-04-30T22:15:55.649Z,101086.63
2023-04-30T22:18:22.898Z,101081.22
2023-04-30T22:20:51.023Z,101083.81
2023-04-30T22:23:18.514Z,101075.81
2023-04-30T22:25:45.156Z,101073.03
2023-04-30T22:28:11.811Z,101079.97
2023-04-30T22:30:39.466Z,101072.00
2023-04-30T22:33:06.802Z,101064.84
2023-04-30T22:35:36.471Z,101075.31
2023-04-30T22:38:03.489Z,101072.56
2023-04-30T22:40:32.658Z,101061.09
2023-04-30T22:43:00.242Z,101070.66
2023-04-30T22:45:29.054Z,101078.47
2023-04-30T22:47:56.396Z,101069.56
2023-04-30T22:50:22.997Z,101072.09
2023-04-30T22:52:49.854Z,101071.94
2023-04-30T22:55:16.839Z,101070.13
2023-04-30T22:57:43.313Z,101078.78
2023-04-30T23:00:10.485Z,101079.50
2023-04-30T23:02:37.242Z,101065.34
2023-04-30T23:05:03.983Z,101066.13
2023-04-30T23:07:30.463Z,101059.03
2023-04-30T23:09:57.336Z,101059.00
2023-04-30T23:12:24.265Z,101058.88
2023-04-30T23:14:50.944Z,101058.81
2023-04-30T23:17:18.039Z,101064.00
2023-04-30T23:19:44.675Z,101060.38
2023-04-30T23:22:11.280Z,101061.13
2023-04-30T23:24:39.132Z,101059.22
2023-04-30T23:27:05.656Z,101060.91
2023-04-30T23:29:33.271Z,101056.38
2023-04-30T23:32:01.514Z,101059.84
2023-04-30T23:34:28.025Z,101050.94
2023-04-30T23:36:54.522Z,101050.00
2023-04-30T23:39:21.182Z,101053.38
2023-04-30T23:41:47.750Z,101052.38
2023-04-30T23:44:14.377Z,101042.63
2023-04-30T23:46:41.597Z,101046.88
2023-04-30T23:49:09.949Z,101044.97
2023-04-30T23:51:36.844Z,101043.13
2023-04-30T23:54:04.580Z,101038.59
2023-04-30T23:56:32.388Z,101043.69
2023-04-30T23:58:58.920Z,101047.09
